Time;durP1;ratioP1;P1;durP2;ratioP2;P2;SDS_P1;SDS_P2;PMS_P1;PMS_P2;Temp;Humidity;BMP_temperature;BMP_pressure;BME280_temperature;BME280_humidity;BME280_pressure;Samples;Min_cycle;Max_cycle;Signal;HPM_P1;HPM_P2
2024/01/03 00:00:55;;;;;;;9.27;2.00;;;8.20;99.90;;;;;;4917372;29;20124;-80
2024/01/03 00:03:22;;;;;;;9.77;2.20;;;8.20;99.90;;;;;;4882132;29;20047;-80
2024/01/03 00:05:48;;;;;;;12.32;2.30;;;8.10;99.90;;;;;;4891722;29;20062;-79
2024/01/03 00:08:29;;;;;;;9.80;1.90;;;8.10;99.90;;;;;;4926312;29;20479;-79
2024/01/03 00:10:56;;;;;;;7.03;1.80;;;8.10;99.90;;;;;;4897293;29;20103;-79
2024/01/03 00:13:37;;;;;;;9.75;1.90;;;8.10;99.90;;;;;;4897746;29;20578;-79
2024/01/03 00:16:06;;;;;;;7.30;1.92;;;8.10;99.90;;;;;;4897722;29;20044;-79
2024/01/03 00:18:37;;;;;;;11.55;2.22;;;8.10;99.90;;;;;;4905815;29;20379;-79
2024/01/03 00:21:07;;;;;;;7.97;2.38;;;8.00;99.90;;;;;;4915874;29;20051;-78
2024/01/03 00:23:37;;;;;;;9.80;2.47;;;8.10;99.90;;;;;;4900880;29;20075;-79
2024/01/03 00:26:03;;;;;;;11.48;2.08;;;8.00;99.90;;;;;;4892144;29;20046;-79
2024/01/03 00:28:29;;;;;;;11.48;2.80;;;8.00;99.90;;;;;;4888305;29;20041;-79
2024/01/03 00:30:55;;;;;;;9.95;2.55;;;8.00;99.90;;;;;;4914999;29;20087;-79
2024/01/03 00:33:21;;;;;;;10.40;2.25;;;8.00;99.90;;;;;;4915935;29;20048;-78
2024/01/03 00:35:46;;;;;;;10.27;2.58;;;8.00;99.90;;;;;;4918765;29;20419;-79
2024/01/03 00:38:12;;;;;;;13.35;3.22;;;8.00;99.90;;;;;;4881687;29;20040;-79
2024/01/03 00:40:51;;;;;;;11.73;2.70;;;8.00;99.90;;;;;;4910967;29;20467;-78
2024/01/03 00:43:17;;;;;;;13.45;2.90;;;8.00;99.90;;;;;;4895886;29;20055;-79
2024/01/03 00:45:43;;;;;;;13.75;3.10;;;7.90;99.90;;;;;;4915276;29;20491;-79
2024/01/03 00:48:09;;;;;;;11.98;2.78;;;7.90;99.90;;;;;;4900236;29;20107;-78
2024/01/03 00:50:34;;;;;;;12.60;2.72;;;7.90;99.90;;;;;;4915643;29;20143;-79
2024/01/03 00:53:00;;;;;;;11.98;2.83;;;7.90;99.90;;;;;;4931505;29;20048;-79
2024/01/03 00:55:26;;;;;;;14.85;2.78;;;7.80;99.90;;;;;;4899725;29;20066;-78
2024/01/03 00:57:52;;;;;;;11.75;2.97;;;7.70;99.90;;;;;;4910746;29;20087;-78
2024/01/03 01:00:18;;;;;;;9.40;2.58;;;7.70;99.90;;;;;;4915313;29;20044;-78
2024/01/03 01:02:45;;;;;;;13.35;3.33;;;7.70;99.90;;;;;;4914575;29;20038;-78
2024/01/03 01:05:11;;;;;;;16.58;3.70;;;7.60;99.90;;;;;;4915206;29;20044;-79
2024/01/03 01:07:36;;;;;;;11.73;2.60;;;7.60;99.90;;;;;;4915448;29;20143;-79
2024/01/03 01:10:02;;;;;;;17.00;3.47;;;7.70;99.90;;;;;;4896495;29;20032;-79
2024/01/03 01:12:27;;;;;;;16.25;3.65;;;7.70;99.90;;;;;;4919424;29;20039;-80
2024/01/03 01:14:53;;;;;;;12.45;2.97;;;7.60;99.90;;;;;;4914593;29;20514;-80
2024/01/03 01:17:19;;;;;;;16.52;3.38;;;7.70;99.90;;;;;;4899739;29;20044;-78
2024/01/03 01:19:45;;;;;;;17.20;3.67;;;7.70;99.90;;;;;;4915068;29;20055;-80
2024/01/03 01:22:12;;;;;;;13.40;2.95;;;7.70;99.90;;;;;;4899629;29;20040;-79
2024/01/03 01:24:38;;;;;;;14.13;3.03;;;7.70;99.90;;;;;;4913937;29;20074;-80
2024/01/03 01:27:04;;;;;;;16.98;3.28;;;7.70;99.90;;;;;;4899258;29;20071;-79
2024/01/03 01:29:29;;;;;;;11.95;3.10;;;7.80;99.90;;;;;;4914216;29;20036;-79
2024/01/03 01:31:55;;;;;;;13.30;2.75;;;7.80;99.90;;;;;;4899695;29;20048;-79
2024/01/03 01:34:20;;;;;;;11.98;2.65;;;7.80;99.90;;;;;;4914278;29;20044;-80
2024/01/03 01:36:46;;;;;;;16.23;3.47;;;7.80;99.90;;;;;;4895932;29;20056;-80
2024/01/03 01:39:11;;;;;;;10.57;2.83;;;7.90;99.90;;;;;;4899413;29;20043;-79
2024/01/03 01:41:37;;;;;;;11.43;2.28;;;7.90;99.90;;;;;;4896789;29;20048;-79
2024/01/03 01:44:03;;;;;;;9.05;2.53;;;7.90;99.90;;;;;;4899038;29;20415;-79
2024/01/03 01:46:28;;;;;;;8.73;2.03;;;8.00;99.90;;;;;;4882457;29;20479;-79
2024/01/03 01:48:54;;;;;;;8.35;1.65;;;8.00;99.90;;;;;;4911992;29;20044;-79
2024/01/03 01:51:20;;;;;;;8.32;2.00;;;8.00;99.90;;;;;;4930594;29;20042;-80
2024/01/03 01:53:46;;;;;;;9.93;2.08;;;8.00;99.90;;;;;;4912591;29;20412;-79
2024/01/03 01:56:12;;;;;;;7.05;1.75;;;8.10;99.90;;;;;;4894260;29;20047;-80
2024/01/03 01:58:41;;;;;;;8.50;2.42;;;8.10;99.90;;;;;;4895757;29;20052;-79
2024/01/03 02:01:07;;;;;;;10.15;2.45;;;8.20;99.90;;;;;;4896475;29;20496;-79
2024/01/03 02:03:35;;;;;;;8.15;2.50;;;8.20;99.90;;;;;;4930013;29;20036;-80
2024/01/03 02:06:01;;;;;;;12.80;2.50;;;8.20;99.90;;;;;;4894726;29;20045;-79
2024/01/03 02:08:27;;;;;;;11.13;2.63;;;8.20;99.90;;;;;;4902173;29;20062;-79
2024/01/03 02:10:53;;;;;;;11.80;2.60;;;8.20;99.90;;;;;;4929728;29;20416;-79
2024/01/03 02:13:19;;;;;;;9.27;2.80;;;8.30;99.90;;;;;;4914373;29;20071;-79
2024/01/03 02:15:44;;;;;;;11.35;2.80;;;8.20;99.90;;;;;;4898754;29;20059;-79
2024/01/03 02:18:11;;;;;;;8.18;2.33;;;8.20;99.90;;;;;;4914477;29;20044;-78
2024/01/03 02:20:38;;;;;;;11.50;2.85;;;8.20;99.90;;;;;;4901152;29;20036;-79
2024/01/03 02:23:03;;;;;;;8.00;2.40;;;8.20;99.90;;;;;;4906596;29;20091;-78
2024/01/03 02:25:29;;;;;;;8.95;2.78;;;8.20;99.90;;;;;;4910868;29;20044;-79
2024/01/03 02:27:54;;;;;;;13.57;2.97;;;8.30;99.90;;;;;;4898640;29;20039;-79
2024/01/03 02:30:20;;;;;;;11.82;3.05;;;8.30;99.90;;;;;;4922417;29;20044;-79
2024/01/03 02:32:46;;;;;;;10.98;3.60;;;8.30;99.90;;;;;;4898488;29;20044;-79
2024/01/03 02:35:11;;;;;;;12.70;4.07;;;8.30;99.90;;;;;;4898637;29;20048;-79
2024/01/03 02:37:37;;;;;;;21.50;5.40;;;8.30;99.90;;;;;;4909199;29;20131;-79
2024/01/03 02:40:02;;;;;;;17.15;4.63;;;8.30;99.90;;;;;;4913681;29;20039;-78
2024/01/03 02:42:28;;;;;;;15.75;3.80;;;8.30;99.90;;;;;;4898682;29;20043;-78
2024/01/03 02:44:53;;;;;;;20.88;4.53;;;8.30;99.90;;;;;;4913990;29;20104;-80
2024/01/03 02:47:19;;;;;;;20.83;4.47;;;8.30;99.90;;;;;;4929580;29;20036;-80
2024/01/03 02:49:44;;;;;;;22.30;4.75;;;8.30;99.90;;;;;;4923843;29;20072;-79
2024/01/03 02:52:10;;;;;;;21.25;4.28;;;8.30;99.90;;;;;;4895168;29;20044;-80
2024/01/03 02:54:36;;;;;;;18.45;4.78;;;8.30;99.90;;;;;;4908079;29;20032;-79
2024/01/03 02:57:01;;;;;;;19.33;4.20;;;8.40;99.90;;;;;;4895610;29;20099;-80
2024/01/03 02:59:27;;;;;;;20.42;4.90;;;8.40;99.90;;;;;;4902784;29;20467;-80
2024/01/03 03:01:52;;;;;;;26.85;5.38;;;8.40;99.90;;;;;;4916526;29;20399;-80
2024/01/03 03:04:18;;;;;;;31.65;5.85;;;8.40;99.90;;;;;;4917559;29;20051;-81
2024/01/03 03:06:43;;;;;;;30.10;5.78;;;8.40;99.90;;;;;;4913967;29;20041;-81
2024/01/03 03:09:09;;;;;;;36.58;6.60;;;8.40;99.90;;;;;;4916766;29;20126;-80
2024/01/03 03:11:35;;;;;;;32.45;5.85;;;8.40;99.90;;;;;;4899312;29;20048;-80
2024/01/03 03:14:00;;;;;;;35.05;6.28;;;8.40;99.90;;;;;;4914272;29;20139;-80
2024/01/03 03:16:26;;;;;;;31.08;6.18;;;8.40;99.90;;;;;;4898799;29;20044;-80
2024/01/03 03:18:51;;;;;;;26.92;5.75;;;8.30;99.90;;;;;;4898531;29;20041;-80
2024/01/03 03:21:17;;;;;;;26.83;5.38;;;8.40;99.90;;;;;;4900993;29;20073;-80
2024/01/03 03:23:42;;;;;;;22.30;4.45;;;8.40;99.90;;;;;;4931056;29;20043;-80
2024/01/03 03:26:10;;;;;;;24.58;5.72;;;8.40;99.90;;;;;;4901676;29;20140;-79
2024/01/03 03:28:36;;;;;;;23.02;5.05;;;8.40;99.90;;;;;;4917321;29;20151;-80
2024/01/03 03:31:03;;;;;;;22.33;5.22;;;8.50;99.90;;;;;;4931995;29;20119;-79
2024/01/03 03:33:30;;;;;;;23.08;5.18;;;8.40;99.90;;;;;;4917093;29;20079;-80
2024/01/03 03:35:55;;;;;;;25.75;5.10;;;8.50;99.90;;;;;;4916241;29;20055;-78
2024/01/03 03:38:21;;;;;;;21.98;4.80;;;8.50;99.90;;;;;;4917149;29;20040;-79
2024/01/03 03:40:47;;;;;;;21.25;4.40;;;8.50;99.90;;;;;;4920128;29;20059;-79
2024/01/03 03:43:12;;;;;;;24.95;4.70;;;8.50;99.90;;;;;;4914679;29;20100;-79
2024/01/03 03:45:38;;;;;;;23.40;5.20;;;8.50;99.90;;;;;;4915838;29;20056;-78
2024/01/03 03:48:07;;;;;;;22.45;5.35;;;8.50;99.90;;;;;;4917566;29;20040;-80
2024/01/03 03:50:32;;;;;;;23.10;5.18;;;8.50;99.90;;;;;;4900823;29;20530;-79
2024/01/03 03:52:58;;;;;;;25.05;5.05;;;8.50;99.90;;;;;;4900984;29;20546;-79
2024/01/03 03:55:23;;;;;;;23.90;5.25;;;8.60;99.90;;;;;;4912220;29;20040;-81
2024/01/03 03:57:49;;;;;;;23.33;4.95;;;8.60;99.90;;;;;;4901515;29;20048;-79
2024/01/03 04:00:15;;;;;;;24.05;5.28;;;8.60;99.90;;;;;;4923438;29;20040;-78
2024/01/03 04:02:40;;;;;;;23.25;4.70;;;8.60;99.90;;;;;;4909240;29;20043;-79
2024/01/03 04:05:06;;;;;;;22.52;5.00;;;8.70;99.90;;;;;;4931112;29;20071;-80
2024/01/03 04:07:32;;;;;;;24.15;4.70;;;8.70;99.90;;;;;;4932533;29;20517;-80
2024/01/03 04:09:57;;;;;;;22.27;4.65;;;8.70;99.90;;;;;;4900001;29;20134;-79
2024/01/03 04:12:23;;;;;;;19.70;4.53;;;8.80;99.90;;;;;;4901087;29;20040;-79
2024/01/03 04:14:49;;;;;;;20.98;5.20;;;8.80;99.90;;;;;;4901037;29;20044;-78
2024/01/03 04:17:15;;;;;;;23.45;5.82;;;8.80;99.90;;;;;;4916242;29;20055;-79
2024/01/03 04:19:41;;;;;;;21.73;4.88;;;8.80;99.90;;;;;;4900624;29;20123;-80
2024/01/03 04:22:07;;;;;;;22.58;4.88;;;8.90;99.90;;;;;;4916783;29;20105;-79
2024/01/03 04:24:32;;;;;;;23.75;4.97;;;8.90;99.90;;;;;;4916631;29;20036;-79
2024/01/03 04:26:58;;;;;;;24.80;5.20;;;8.90;99.90;;;;;;4932326;29;20032;-78
2024/01/03 04:29:24;;;;;;;22.23;4.85;;;8.90;99.90;;;;;;4916146;29;20399;-79
2024/01/03 04:31:49;;;;;;;25.83;5.18;;;8.90;99.90;;;;;;4924815;29;20095;-79
2024/01/03 04:34:15;;;;;;;27.17;5.78;;;8.90;99.90;;;;;;4932241;29;20048;-79
2024/01/03 04:36:40;;;;;;;26.92;5.72;;;8.90;99.90;;;;;;4900886;29;20558;-79
2024/01/03 04:39:06;;;;;;;27.77;5.68;;;8.90;99.90;;;;;;4931695;29;20032;-79
2024/01/03 04:41:31;;;;;;;27.55;5.45;;;8.90;99.90;;;;;;4910340;29;20032;-79
2024/01/03 04:43:57;;;;;;;24.35;5.20;;;8.90;99.90;;;;;;4905555;29;20464;-79
2024/01/03 04:46:23;;;;;;;26.33;6.20;;;8.90;99.90;;;;;;4897679;29;20400;-79
2024/01/03 04:48:48;;;;;;;22.15;4.63;;;9.00;99.90;;;;;;4899848;29;20127;-79
2024/01/03 04:51:17;;;;;;;28.13;5.68;;;8.90;99.90;;;;;;4916086;29;20095;-79
2024/01/03 04:53:43;;;;;;;25.95;5.22;;;9.00;99.90;;;;;;4899547;29;20399;-79
2024/01/03 04:56:09;;;;;;;25.70;5.75;;;9.00;99.90;;;;;;4909563;29;20052;-79
2024/01/03 04:58:34;;;;;;;25.55;5.75;;;9.00;99.90;;;;;;4912901;29;20041;-78
2024/01/03 05:01:00;;;;;;;25.05;6.05;;;9.00;99.90;;;;;;4927975;29;20064;-79
2024/01/03 05:03:26;;;;;;;26.02;5.40;;;9.10;99.90;;;;;;4931561;29;20035;-79
2024/01/03 05:05:51;;;;;;;22.48;5.35;;;9.10;99.90;;;;;;4915060;29;20071;-79
2024/01/03 05:08:17;;;;;;;23.85;5.07;;;9.10;99.90;;;;;;4899982;29;20059;-78
2024/01/03 05:10:42;;;;;;;28.08;5.63;;;9.20;99.90;;;;;;4902004;29;20094;-78
2024/01/03 05:13:08;;;;;;;20.92;5.45;;;9.10;99.90;;;;;;4899920;29;20110;-79
2024/01/03 05:15:33;;;;;;;27.15;5.38;;;9.10;99.90;;;;;;4912986;29;20056;-79
2024/01/03 05:17:59;;;;;;;23.45;5.57;;;9.10;99.90;;;;;;4912583;29;20056;-78
2024/01/03 05:20:24;;;;;;;24.08;6.00;;;9.10;99.90;;;;;;4916640;29;20064;-78
2024/01/03 05:22:50;;;;;;;22.00;4.93;;;9.10;99.90;;;;;;4898634;29;20047;-79
2024/01/03 05:25:16;;;;;;;24.67;5.60;;;9.10;99.90;;;;;;4931420;29;20074;-79
2024/01/03 05:27:42;;;;;;;23.98;5.65;;;9.10;99.90;;;;;;4900263;29;20043;-79
2024/01/03 05:30:08;;;;;;;25.50;5.30;;;9.10;99.90;;;;;;4912286;29;20518;-78
2024/01/03 05:32:33;;;;;;;25.85;5.90;;;9.10;99.90;;;;;;4914151;29;20456;-79
2024/01/03 05:34:59;;;;;;;31.30;6.43;;;9.10;99.90;;;;;;4914653;29;20091;-79
2024/01/03 05:37:24;;;;;;;28.02;5.40;;;9.10;99.90;;;;;;4907348;29;20530;-79
2024/01/03 05:39:50;;;;;;;25.45;6.07;;;9.00;99.90;;;;;;4916291;29;20044;-78
2024/01/03 05:42:15;;;;;;;21.40;5.25;;;9.00;99.90;;;;;;4921738;29;20041;-77
2024/01/03 05:44:41;;;;;;;23.70;5.32;;;9.00;99.90;;;;;;4899888;29;20376;-78
2024/01/03 05:47:07;;;;;;;24.65;4.80;;;9.00;99.90;;;;;;4913884;29;20506;-78
2024/01/03 05:49:34;;;;;;;21.02;5.22;;;9.10;99.90;;;;;;4915000;29;20508;-78
2024/01/03 05:51:59;;;;;;;21.45;4.25;;;9.10;99.90;;;;;;4922197;29;20100;-78
2024/01/03 05:54:25;;;;;;;23.60;5.18;;;9.10;99.90;;;;;;4896082;29;20131;-79
2024/01/03 05:56:50;;;;;;;22.38;5.03;;;9.10;99.90;;;;;;4896501;29;20048;-78
2024/01/03 05:59:16;;;;;;;22.90;5.30;;;9.10;99.90;;;;;;4902964;29;20067;-78
2024/01/03 06:01:41;;;;;;;21.63;4.70;;;9.10;99.90;;;;;;4913246;29;20032;-79
2024/01/03 06:04:07;;;;;;;25.98;5.57;;;9.10;99.90;;;;;;4929403;29;20127;-78
2024/01/03 06:06:33;;;;;;;25.25;5.22;;;9.10;99.90;;;;;;4899316;29;20040;-79
2024/01/03 06:08:58;;;;;;;25.65;5.65;;;9.20;99.90;;;;;;4914491;29;20513;-79
2024/01/03 06:11:24;;;;;;;22.02;4.82;;;9.20;99.90;;;;;;4899698;29;20557;-78
2024/01/03 06:13:51;;;;;;;22.73;4.50;;;9.20;99.90;;;;;;4909674;29;20411;-78
2024/01/03 06:16:16;;;;;;;24.77;5.22;;;9.20;99.90;;;;;;4927649;29;20526;-79
2024/01/03 06:18:42;;;;;;;23.67;4.75;;;9.20;99.90;;;;;;4914789;29;20040;-79
2024/01/03 06:21:11;;;;;;;21.50;4.80;;;9.20;99.90;;;;;;4899193;29;20374;-79
2024/01/03 06:23:38;;;;;;;24.23;5.25;;;9.20;99.90;;;;;;4909568;29;20123;-78
2024/01/03 06:26:06;;;;;;;27.85;5.32;;;9.10;99.90;;;;;;4880726;29;20037;-79
2024/01/03 06:28:31;;;;;;;24.15;4.93;;;9.20;99.90;;;;;;4913809;29;20419;-78
2024/01/03 06:30:57;;;;;;;26.67;5.30;;;9.20;99.90;;;;;;4887748;29;20040;-79
2024/01/03 06:33:22;;;;;;;23.50;5.20;;;9.20;99.90;;;;;;4911355;29;20074;-78
2024/01/03 06:35:48;;;;;;;25.02;5.53;;;9.20;99.90;;;;;;4896071;29;20044;-79
2024/01/03 06:38:13;;;;;;;26.58;5.25;;;9.20;99.90;;;;;;4912815;29;20040;-79
2024/01/03 06:40:39;;;;;;;23.80;4.85;;;9.10;99.90;;;;;;4895917;29;20389;-79
2024/01/03 06:43:06;;;;;;;27.38;5.75;;;9.10;99.90;;;;;;4918169;29;20423;-79
2024/01/03 06:45:31;;;;;;;23.83;5.80;;;9.10;99.90;;;;;;4898831;29;20070;-79
2024/01/03 06:47:57;;;;;;;22.95;5.05;;;9.10;99.90;;;;;;4929950;29;20527;-79
2024/01/03 06:50:22;;;;;;;26.88;5.90;;;9.10;99.90;;;;;;4930754;29;20047;-78
2024/01/03 06:52:48;;;;;;;20.50;5.38;;;9.00;99.90;;;;;;4898610;29;20131;-78
2024/01/03 06:55:13;;;;;;;21.67;5.20;;;9.00;99.90;;;;;;4929627;29;20051;-79
2024/01/03 06:57:41;;;;;;;28.90;6.20;;;9.00;99.90;;;;;;4914514;29;20176;-79
2024/01/03 07:00:07;;;;;;;27.38;5.45;;;9.00;99.90;;;;;;4896455;29;20071;-79
2024/01/03 07:02:33;;;;;;;27.02;5.15;;;9.00;99.90;;;;;;4910098;29;20125;-79
2024/01/03 07:04:58;;;;;;;26.90;5.47;;;9.00;99.90;;;;;;4894878;29;20081;-78
2024/01/03 07:07:24;;;;;;;28.30;5.25;;;8.90;99.90;;;;;;4895632;29;20041;-78
2024/01/03 07:09:49;;;;;;;22.27;5.10;;;8.90;99.90;;;;;;4912130;29;20058;-79
2024/01/03 07:12:15;;;;;;;23.42;5.40;;;8.90;99.90;;;;;;4895723;29;20131;-78
2024/01/03 07:14:40;;;;;;;27.58;5.55;;;8.90;99.90;;;;;;4890077;29;20127;-78
2024/01/03 07:17:06;;;;;;;21.42;5.45;;;8.90;99.90;;;;;;4919655;29;20486;-78
2024/01/03 07:19:31;;;;;;;24.33;5.30;;;8.90;99.90;;;;;;4906469;29;20507;-79
2024/01/03 07:21:57;;;;;;;27.08;5.55;;;8.90;99.90;;;;;;4897793;29;20051;-79
2024/01/03 07:24:23;;;;;;;25.60;4.82;;;8.90;99.90;;;;;;4906567;29;20406;-78
2024/01/03 07:26:49;;;;;;;28.75;6.25;;;8.90;99.90;;;;;;4894766;29;20053;-81
2024/01/03 07:29:14;;;;;;;27.10;5.63;;;8.90;99.90;;;;;;4895340;29;20048;-81
2024/01/03 07:31:40;;;;;;;23.55;5.32;;;8.90;99.90;;;;;;4889715;29;20087;-80
2024/01/03 07:34:06;;;;;;;29.75;6.47;;;8.90;99.90;;;;;;4909597;29;20048;-81
2024/01/03 07:36:32;;;;;;;29.55;5.93;;;8.90;99.90;;;;;;4894448;29;20510;-81
2024/01/03 07:39:00;;;;;;;31.20;6.07;;;8.80;99.90;;;;;;4894367;29;20037;-81
2024/01/03 07:41:26;;;;;;;28.25;5.65;;;8.80;99.90;;;;;;4908100;29;20043;-80
2024/01/03 07:43:51;;;;;;;28.70;6.10;;;8.80;99.90;;;;;;4895355;29;20116;-80
2024/01/03 07:46:18;;;;;;;30.55;6.55;;;8.80;99.90;;;;;;4898192;29;20562;-80
2024/01/03 07:48:43;;;;;;;29.95;5.97;;;8.80;99.90;;;;;;4914296;29;20048;-78
2024/01/03 07:51:11;;;;;;;26.23;5.45;;;8.80;99.90;;;;;;4911181;29;20040;-78
2024/01/03 07:53:37;;;;;;;26.02;5.18;;;8.80;99.90;;;;;;4897814;29;20044;-78
2024/01/03 07:56:05;;;;;;;30.67;5.97;;;8.80;99.90;;;;;;4925771;29;20099;-78
2024/01/03 07:58:31;;;;;;;29.80;6.47;;;8.80;99.90;;;;;;4917069;29;20135;-78
2024/01/03 08:00:56;;;;;;;31.05;5.90;;;8.90;99.90;;;;;;4924136;29;20193;-78
2024/01/03 08:03:22;;;;;;;24.92;5.43;;;8.80;99.90;;;;;;4911459;29;20384;-78
2024/01/03 08:05:48;;;;;;;28.38;5.82;;;8.90;99.90;;;;;;4891579;29;20115;-78
2024/01/03 08:08:14;;;;;;;26.75;5.63;;;8.90;99.90;;;;;;4914760;29;20041;-79
2024/01/03 08:10:39;;;;;;;26.92;5.78;;;8.90;99.90;;;;;;4898291;29;20503;-78
2024/01/03 08:13:05;;;;;;;24.92;5.78;;;8.90;99.90;;;;;;4904922;29;20040;-79
2024/01/03 08:15:31;;;;;;;25.70;5.53;;;8.80;99.90;;;;;;4915644;29;20046;-79
2024/01/03 08:17:56;;;;;;;26.20;4.90;;;8.80;99.90;;;;;;4917131;29;20051;-79
2024/01/03 08:20:22;;;;;;;27.98;5.63;;;8.80;99.90;;;;;;4918015;29;20040;-79
2024/01/03 08:22:47;;;;;;;26.52;5.78;;;8.80;99.90;;;;;;4912112;29;20503;-78
2024/01/03 08:25:13;;;;;;;27.88;6.00;;;8.90;99.90;;;;;;4913185;29;20036;-79
2024/01/03 08:27:40;;;;;;;31.27;6.70;;;8.90;99.90;;;;;;4897501;29;20368;-79
2024/01/03 08:30:06;;;;;;;30.77;6.95;;;8.90;99.90;;;;;;4894684;29;20510;-79
2024/01/03 08:32:32;;;;;;;31.63;6.00;;;8.90;99.90;;;;;;4900907;29;20037;-78
2024/01/03 08:34:59;;;;;;;31.48;6.03;;;8.90;99.90;;;;;;4915832;29;20139;-78
2024/01/03 08:37:24;;;;;;;28.55;6.15;;;8.90;99.90;;;;;;4905658;29;20037;-81
2024/01/03 08:39:50;;;;;;;25.23;5.90;;;9.00;99.90;;;;;;4900429;29;20044;-80
2024/01/03 08:42:15;;;;;;;30.35;6.20;;;9.00;99.90;;;;;;4917094;29;20217;-80
2024/01/03 08:44:41;;;;;;;25.88;5.50;;;9.00;99.90;;;;;;4914426;29;20041;-79
2024/01/03 08:47:07;;;;;;;28.02;5.55;;;9.00;99.90;;;;;;4915584;29;20040;-81
2024/01/03 08:49:33;;;;;;;27.92;5.53;;;9.00;99.90;;;;;;4914767;29;20033;-79
2024/01/03 08:51:58;;;;;;;22.60;6.18;;;9.00;99.90;;;;;;4906323;29;20047;-79
2024/01/03 08:54:24;;;;;;;23.42;5.32;;;9.10;99.90;;;;;;4901231;29;20087;-80
2024/01/03 08:56:50;;;;;;;25.33;5.82;;;9.10;99.90;;;;;;4898525;29;20036;-80
2024/01/03 08:59:16;;;;;;;22.30;4.90;;;9.10;99.90;;;;;;4897884;29;20507;-81
2024/01/03 09:01:41;;;;;;;23.02;5.00;;;9.20;99.90;;;;;;4898698;29;20036;-79
2024/01/03 09:04:07;;;;;;;24.38;5.05;;;9.10;99.90;;;;;;4927898;29;20099;-78
2024/01/03 09:06:35;;;;;;;25.13;5.53;;;9.10;99.90;;;;;;4914616;29;20040;-79
2024/01/03 09:09:01;;;;;;;25.80;5.30;;;9.10;99.90;;;;;;4921474;29;20457;-79
2024/01/03 09:11:28;;;;;;;22.95;5.32;;;9.10;99.90;;;;;;4913793;29;20048;-79
2024/01/03 09:13:54;;;;;;;27.08;5.38;;;9.10;99.90;;;;;;4913889;29;20044;-79
2024/01/03 09:16:23;;;;;;;24.95;4.63;;;9.20;99.90;;;;;;4914151;29;20048;-79
2024/01/03 09:18:49;;;;;;;21.88;5.03;;;9.20;99.90;;;;;;4916540;29;20499;-79
2024/01/03 09:21:15;;;;;;;23.27;5.00;;;9.20;99.90;;;;;;4901322;29;20029;-78
2024/01/03 09:23:41;;;;;;;18.08;4.03;;;9.20;99.90;;;;;;4922411;29;20097;-79
2024/01/03 09:26:07;;;;;;;20.00;4.55;;;9.20;99.90;;;;;;4932668;29;20082;-79
2024/01/03 09:28:37;;;;;;;20.25;5.47;;;9.10;99.90;;;;;;4908908;29;20068;-79
2024/01/03 09:31:03;;;;;;;22.80;4.13;;;9.10;99.90;;;;;;4898949;29;20059;-79
2024/01/03 09:33:29;;;;;;;18.77;4.05;;;9.00;99.90;;;;;;4898805;29;20067;-79
2024/01/03 09:35:54;;;;;;;18.27;4.50;;;9.00;99.90;;;;;;4909334;29;20071;-79
2024/01/03 09:38:20;;;;;;;20.48;4.03;;;8.90;99.90;;;;;;4931479;29;20052;-79
2024/01/03 09:40:46;;;;;;;19.48;4.45;;;9.00;99.90;;;;;;4906229;29;20041;-79
2024/01/03 09:43:12;;;;;;;15.07;3.83;;;8.90;99.90;;;;;;4909570;29;20043;-79
2024/01/03 09:45:38;;;;;;;15.65;3.65;;;9.00;99.90;;;;;;4908929;29;20091;-79
2024/01/03 09:48:05;;;;;;;18.75;4.30;;;9.10;99.90;;;;;;4915548;29;20051;-80
2024/01/03 09:50:31;;;;;;;18.42;4.15;;;9.10;99.90;;;;;;4926288;29;20067;-79
2024/01/03 09:52:58;;;;;;;22.05;4.38;;;9.20;99.90;;;;;;4905854;29;20110;-79
2024/01/03 09:55:23;;;;;;;22.80;4.55;;;9.20;99.90;;;;;;4903998;29;20045;-79
2024/01/03 09:57:54;;;;;;;20.73;4.45;;;9.30;99.90;;;;;;4952627;23;20059;-75
2024/01/03 10:00:20;;;;;;;22.33;5.28;;;9.30;99.90;;;;;;4897001;29;20041;-78
2024/01/03 10:02:48;;;;;;;22.60;5.32;;;9.30;99.90;;;;;;4880554;29;20047;-76
2024/01/03 10:05:23;;;;;;;23.50;4.70;;;9.20;99.90;;;;;;4894427;29;20443;-76
2024/01/03 10:07:51;;;;;;;20.38;4.97;;;9.30;99.90;;;;;;4892226;29;20075;-78
2024/01/03 10:10:34;;;;;;;23.88;4.93;;;9.20;99.90;;;;;;4895164;29;20048;-75
2024/01/03 10:13:15;;;;;;;26.85;5.32;;;9.20;99.90;;;;;;4896877;29;20100;-75
2024/01/03 10:15:45;;;;;;;20.48;5.13;;;9.20;99.90;;;;;;4889226;29;20047;-76
2024/01/03 10:18:13;;;;;;;21.58;5.45;;;9.20;99.90;;;;;;4890757;29;20047;-77
2024/01/03 10:20:39;;;;;;;27.58;5.72;;;9.30;99.90;;;;;;4884605;29;20071;-76
2024/01/03 10:23:13;;;;;;;25.67;5.82;;;9.20;99.90;;;;;;4885137;29;20172;-75
2024/01/03 10:25:42;;;;;;;20.77;5.32;;;9.30;99.90;;;;;;4878402;29;20105;-77
2024/01/03 10:28:13;;;;;;;25.08;5.40;;;9.40;99.90;;;;;;4861250;29;20044;-77
2024/01/03 10:30:39;;;;;;;25.20;5.53;;;9.40;99.90;;;;;;4879357;29;20049;-77
2024/01/03 10:33:07;;;;;;;31.77;6.45;;;9.40;99.90;;;;;;4890228;29;20048;-77
2024/01/03 10:35:37;;;;;;;27.17;6.53;;;9.40;99.90;;;;;;4890655;29;20071;-77
2024/01/03 10:38:06;;;;;;;30.85;7.07;;;9.40;99.90;;;;;;4900411;29;20479;-78
2024/01/03 10:40:44;;;;;;;28.67;6.07;;;9.50;99.90;;;;;;4915328;29;20049;-78
2024/01/03 10:43:16;;;;;;;31.40;6.00;;;9.40;99.90;;;;;;4897696;29;20081;-78
2024/01/03 10:45:45;;;;;;;33.83;6.55;;;9.50;99.90;;;;;;4887702;29;20100;-78
2024/01/03 10:48:10;;;;;;;28.90;6.90;;;9.50;99.90;;;;;;4877773;29;20049;-79
2024/01/03 10:50:44;;;;;;;25.45;6.30;;;9.50;99.90;;;;;;4895712;29;20071;-76
2024/01/03 10:53:11;;;;;;;35.00;7.50;;;9.50;99.90;;;;;;4880538;29;20135;-76
2024/01/03 10:55:39;;;;;;;31.23;7.03;;;9.50;99.90;;;;;;4886438;29;20456;-76
2024/01/03 10:58:16;;;;;;;28.35;6.15;;;9.50;99.90;;;;;;4861043;29;20503;-76
2024/01/03 11:00:52;;;;;;;34.60;7.68;;;9.50;99.90;;;;;;4861165;29;20097;-75
2024/01/03 11:03:27;;;;;;;53.10;8.85;;;9.40;99.90;;;;;;4874685;29;20037;-75
2024/01/03 11:06:01;;;;;;;30.33;6.20;;;9.40;99.90;;;;;;4888399;29;20461;-75
2024/01/03 11:09:01;;;;;;;23.83;5.78;;;9.30;99.90;;;;;;4880750;29;20427;-75
2024/01/03 11:11:36;;;;;;;23.30;4.43;;;9.30;99.90;;;;;;4876333;29;20048;-75
2024/01/03 11:14:23;;;;;;;22.30;5.25;;;9.20;99.90;;;;;;4899460;29;20040;-75
2024/01/03 11:16:49;;;;;;;20.55;4.10;;;9.20;99.90;;;;;;4876087;29;20503;-74
2024/01/03 11:19:25;;;;;;;22.23;4.40;;;9.20;99.90;;;;;;4884789;29;20047;-75
2024/01/03 11:21:51;;;;;;;21.80;4.55;;;9.20;99.90;;;;;;4915017;29;20051;-74
2024/01/03 11:24:19;;;;;;;17.92;4.07;;;9.20;99.90;;;;;;4893534;29;20402;-74
2024/01/03 11:26:57;;;;;;;23.80;4.80;;;9.20;99.90;;;;;;4885984;29;20079;-74
2024/01/03 11:29:39;;;;;;;22.90;4.38;;;9.20;99.90;;;;;;4877398;29;20041;-74
2024/01/03 11:32:10;;;;;;;27.85;4.75;;;9.10;99.90;;;;;;4884852;29;20044;-74
2024/01/03 11:34:41;;;;;;;30.98;5.15;;;9.00;99.90;;;;;;4910094;29;20044;-74
2024/01/03 11:37:11;;;;;;;29.95;4.85;;;9.00;99.90;;;;;;4893375;29;20063;-74
2024/01/03 11:39:45;;;;;;;25.63;5.05;;;9.00;99.90;;;;;;4887529;29;20127;-74
2024/01/03 11:42:18;;;;;;;24.52;4.65;;;9.00;99.90;;;;;;4893661;29;20044;-74
2024/01/03 11:44:44;;;;;;;30.55;5.00;;;9.00;99.90;;;;;;4901237;29;20527;-74
2024/01/03 11:47:13;;;;;;;27.52;4.50;;;9.00;99.90;;;;;;4892015;29;20044;-75
2024/01/03 11:49:40;;;;;;;26.77;5.00;;;8.90;99.90;;;;;;4882733;29;20052;-75
2024/01/03 11:52:06;;;;;;;26.77;5.47;;;9.00;99.90;;;;;;4889231;29;20131;-75
2024/01/03 11:54:32;;;;;;;31.67;4.80;;;9.10;99.90;;;;;;4901280;29;20131;-76
2024/01/03 11:57:06;;;;;;;29.33;5.00;;;9.00;99.90;;;;;;4901177;29;20131;-76
2024/01/03 11:59:33;;;;;;;22.48;4.57;;;9.00;99.90;;;;;;4892137;29;20369;-75
2024/01/03 12:01:59;;;;;;;23.42;4.75;;;8.90;99.90;;;;;;4863932;29;20049;-75
2024/01/03 12:04:25;;;;;;;24.45;4.35;;;8.90;99.90;;;;;;4890534;29;20554;-75
2024/01/03 12:06:57;;;;;;;19.77;4.57;;;8.80;99.90;;;;;;4888865;29;20068;-75
2024/01/03 12:09:24;;;;;;;26.83;4.68;;;8.80;99.90;;;;;;4880367;29;20053;-75
2024/01/03 12:11:50;;;;;;;23.48;4.90;;;8.80;99.90;;;;;;4879032;29;20045;-75
2024/01/03 12:14:19;;;;;;;22.83;4.80;;;8.80;99.90;;;;;;4894432;29;20129;-75
2024/01/03 12:16:49;;;;;;;21.55;4.55;;;8.70;99.90;;;;;;4869044;29;20052;-75
2024/01/03 12:19:28;;;;;;;24.85;5.10;;;8.70;99.90;;;;;;4892292;29;20128;-75
2024/01/03 12:22:01;;;;;;;19.15;4.53;;;8.80;99.90;;;;;;4900960;29;20066;-75
2024/01/03 12:24:43;;;;;;;19.35;4.45;;;8.70;99.90;;;;;;4900606;29;20499;-75
2024/01/03 12:27:10;;;;;;;19.80;4.13;;;8.70;99.90;;;;;;4891438;29;20048;-75
2024/01/03 12:29:36;;;;;;;21.73;4.20;;;8.70;99.90;;;;;;4893365;29;20043;-75
2024/01/03 12:32:15;;;;;;;25.75;3.95;;;8.60;99.90;;;;;;4916336;29;20503;-75
2024/01/03 12:34:40;;;;;;;22.98;3.72;;;8.60;99.90;;;;;;4906096;29;20496;-75
2024/01/03 12:37:06;;;;;;;21.38;3.38;;;8.60;99.90;;;;;;4899305;29;20092;-75
2024/01/03 12:39:39;;;;;;;22.00;3.92;;;8.50;99.90;;;;;;4893102;29;20032;-75
2024/01/03 12:42:09;;;;;;;;;;;8.60;99.90;;;;;;4900792;29;20422;-75
2024/01/03 12:44:37;;;;;;;19.95;4.07;;;8.50;99.90;;;;;;4900096;29;19923;-75
2024/01/03 12:47:05;;;;;;;14.98;3.85;;;8.60;99.90;;;;;;4892399;29;20056;-75